createdAt,value
2022-10-30T00:01:10.228Z,7.93
2022-10-30T00:03:37.246Z,7.80
2022-10-30T00:06:06.420Z,9.15
2022-10-30T00:08:33.761Z,7.93
2022-10-30T00:11:08.802Z,8.73
2022-10-30T00:13:36.393Z,8.57
2022-10-30T00:16:06.749Z,7.93
2022-10-30T00:18:36.207Z,7.88
2022-10-30T00:21:11.857Z,8.60
2022-10-30T00:23:39.053Z,7.78
2022-10-30T00:26:07.341Z,8.93
2022-10-30T00:28:34.702Z,7.20
2022-10-30T00:31:03.235Z,8.23
2022-10-30T00:33:30.659Z,8.02
2022-10-30T00:35:58.419Z,7.95
2022-10-30T00:38:25.477Z,8.25
2022-10-30T00:40:52.546Z,8.48
2022-10-30T00:43:45.983Z,7.78
2022-10-30T00:46:28.221Z,8.80
2022-10-30T00:49:04.027Z,8.32
2022-10-30T00:51:33.102Z,8.30
2022-10-30T00:54:03.130Z,8.50
2022-10-30T00:56:30.840Z,8.23
2022-10-30T00:59:03.254Z,8.32
2022-10-30T01:01:33.724Z,8.98
2022-10-30T01:04:02.892Z,8.38
2022-10-30T01:06:32.570Z,9.27
2022-10-30T01:09:00.485Z,8.15
2022-10-30T01:11:27.903Z,8.45
2022-10-30T01:13:58.987Z,8.27
2022-10-30T01:16:34.656Z,8.60
2022-10-30T01:19:25.578Z,7.93
2022-10-30T01:22:13.593Z,8.20
2022-10-30T01:25:15.185Z,7.97
2022-10-30T01:27:55.735Z,8.13
2022-10-30T01:30:44.316Z,7.90
2022-10-30T01:33:48.056Z,8.15
2022-10-30T01:36:29.212Z,8.47
2022-10-30T01:39:23.933Z,6.70
2022-10-30T01:41:52.209Z,7.63
2022-10-30T01:44:24.977Z,9.13
2022-10-30T01:46:57.719Z,7.80
2022-10-30T01:49:30.591Z,8.27
2022-10-30T01:52:12.870Z,8.27
2022-10-30T01:54:58.247Z,8.65
2022-10-30T01:57:53.809Z,8.35
2022-10-30T02:00:20.910Z,8.68
2022-10-30T02:02:50.050Z,8.52
2022-10-30T02:05:36.609Z,8.80
2022-10-30T02:08:03.764Z,8.90
2022-10-30T02:10:33.282Z,8.55
2022-10-30T02:13:01.210Z,9.55
2022-10-30T02:15:28.989Z,8.48
2022-10-30T02:17:57.004Z,8.85
2022-10-30T02:20:25.350Z,7.72
2022-10-30T02:22:56.251Z,9.45
2022-10-30T02:25:26.815Z,8.95
2022-10-30T02:27:53.810Z,8.02
2022-10-30T02:30:21.112Z,7.93
2022-10-30T02:32:51.198Z,8.98
2022-10-30T02:35:18.229Z,8.30
2022-10-30T02:37:48.505Z,8.25
2022-10-30T02:40:15.636Z,8.52
2022-10-30T02:42:42.655Z,9.27
2022-10-30T02:45:10.353Z,8.57
2022-10-30T02:47:37.381Z,9.57
2022-10-30T02:50:04.664Z,8.45
2022-10-30T02:52:31.994Z,9.27
2022-10-30T02:54:59.011Z,9.38
2022-10-30T02:57:26.052Z,10.02
2022-10-30T02:59:53.157Z,9.02
2022-10-30T03:02:20.191Z,10.32
2022-10-30T03:04:47.274Z,8.80
2022-10-30T03:07:14.401Z,10.20
2022-10-30T03:09:41.526Z,9.30
2022-10-30T03:12:08.504Z,9.57
2022-10-30T03:14:35.497Z,8.98
2022-10-30T03:17:02.546Z,9.15
2022-10-30T03:19:29.547Z,8.50
2022-10-30T03:21:56.601Z,9.63
2022-10-30T03:24:23.586Z,9.23
2022-10-30T03:26:50.584Z,8.57
2022-10-30T03:29:17.700Z,9.18
2022-10-30T03:31:44.743Z,9.55
2022-10-30T03:34:12.202Z,9.63
2022-10-30T03:36:39.202Z,9.90
2022-10-30T03:39:06.348Z,9.48
2022-10-30T03:41:33.352Z,9.23
2022-10-30T03:44:00.431Z,9.50
2022-10-30T03:46:27.474Z,10.90
2022-10-30T03:48:54.505Z,9.73
2022-10-30T03:51:21.485Z,10.00
2022-10-30T03:53:48.477Z,9.95
2022-10-30T03:56:15.535Z,10.90
2022-10-30T03:58:42.548Z,10.85
2022-10-30T04:01:10.517Z,10.88
2022-10-30T04:03:37.583Z,10.40
2022-10-30T04:06:05.400Z,10.52
2022-10-30T04:08:32.401Z,10.13
2022-10-30T04:10:59.588Z,10.88
2022-10-30T04:13:26.634Z,10.85
2022-10-30T04:15:56.077Z,11.27
2022-10-30T04:18:25.684Z,10.05
2022-10-30T04:20:53.103Z,11.57
2022-10-30T04:23:21.909Z,10.85
2022-10-30T04:25:49.284Z,10.43
2022-10-30T04:28:16.533Z,12.65
2022-10-30T04:30:43.949Z,10.80
2022-10-30T04:33:12.485Z,10.10
2022-10-30T04:35:40.431Z,10.57
2022-10-30T04:38:18.895Z,11.30
2022-10-30T04:40:46.104Z,10.38
2022-10-30T04:43:14.101Z,11.40
2022-10-30T04:45:41.599Z,10.18
2022-10-30T04:48:13.155Z,10.35
2022-10-30T04:50:40.248Z,11.27
2022-10-30T04:53:14.014Z,11.57
2022-10-30T04:58:09.330Z,11.52
2022-10-30T05:00:36.824Z,10.80
2022-10-30T05:03:04.086Z,10.75
2022-10-30T05:05:32.358Z,10.18
2022-10-30T05:07:59.860Z,9.98
2022-10-30T05:10:27.578Z,10.80
2022-10-30T05:12:54.643Z,11.05
2022-10-30T05:15:21.797Z,10.48
2022-10-30T05:17:53.581Z,10.50
2022-10-30T05:20:21.468Z,10.35
2022-10-30T05:22:55.817Z,10.80
2022-10-30T05:25:23.883Z,10.65
2022-10-30T05:27:50.950Z,12.05
2022-10-30T05:30:17.972Z,11.98
2022-10-30T05:32:45.104Z,12.05
2022-10-30T05:35:12.206Z,10.75
2022-10-30T05:37:39.620Z,12.10
2022-10-30T05:40:07.079Z,12.48
2022-10-30T05:42:34.112Z,12.05
2022-10-30T05:45:02.206Z,10.93
2022-10-30T05:47:30.097Z,11.15
2022-10-30T05:49:57.191Z,12.40
2022-10-30T05:52:24.203Z,11.82
2022-10-30T05:54:51.189Z,11.23
2022-10-30T05:57:18.186Z,12.63
2022-10-30T05:59:45.222Z,13.10
2022-10-30T06:02:12.337Z,13.25
2022-10-30T06:04:39.755Z,12.82
2022-10-30T06:07:06.807Z,12.60
2022-10-30T06:09:33.819Z,13.55
2022-10-30T06:12:01.024Z,12.68
2022-10-30T06:14:28.071Z,12.68
2022-10-30T06:16:55.078Z,13.65
2022-10-30T06:19:22.108Z,13.50
2022-10-30T06:21:49.264Z,13.55
2022-10-30T06:24:16.265Z,13.40
2022-10-30T06:26:43.266Z,13.85
2022-10-30T06:29:10.320Z,13.18
2022-10-30T06:31:37.359Z,12.30
2022-10-30T06:34:05.367Z,13.13
2022-10-30T06:36:32.492Z,13.85
2022-10-30T06:38:59.830Z,12.30
2022-10-30T06:41:30.286Z,12.95
2022-10-30T06:43:57.718Z,13.35
2022-10-30T06:46:27.477Z,12.88
2022-10-30T06:48:57.830Z,12.77
2022-10-30T06:51:25.065Z,13.63
2022-10-30T06:53:52.073Z,13.70
2022-10-30T06:56:19.078Z,14.93
2022-10-30T06:58:46.100Z,13.63
2022-10-30T07:01:13.284Z,14.30
2022-10-30T07:03:40.505Z,13.23
2022-10-30T07:06:07.763Z,13.95
2022-10-30T07:08:34.831Z,14.18
2022-10-30T07:11:01.845Z,14.95
2022-10-30T07:13:28.889Z,13.48
2022-10-30T07:15:55.948Z,14.52
2022-10-30T07:18:23.080Z,13.18
2022-10-30T07:20:56.095Z,14.05
2022-10-30T07:23:23.826Z,12.75
2022-10-30T07:25:50.870Z,14.90
2022-10-30T07:28:18.008Z,14.02
2022-10-30T07:30:45.071Z,13.90
2022-10-30T07:33:12.095Z,13.30
2022-10-30T07:35:39.519Z,13.68
2022-10-30T07:38:10.635Z,13.10
2022-10-30T07:40:37.776Z,12.68
2022-10-30T07:43:05.446Z,14.70
2022-10-30T07:45:32.878Z,14.38
2022-10-30T07:48:01.011Z,14.48
2022-10-30T07:50:28.535Z,14.60
2022-10-30T07:52:55.659Z,14.73
2022-10-30T07:55:23.036Z,14.88
2022-10-30T07:57:50.436Z,14.93
2022-10-30T08:00:18.131Z,14.35
2022-10-30T08:02:51.127Z,15.07
2022-10-30T08:05:18.430Z,14.65
2022-10-30T08:07:46.661Z,14.30
2022-10-30T08:10:13.924Z,13.88
2022-10-30T08:12:43.870Z,14.38
2022-10-30T08:15:11.746Z,13.38
2022-10-30T08:17:43.600Z,14.77
2022-10-30T08:20:12.034Z,12.85
2022-10-30T08:22:55.750Z,13.45
2022-10-30T08:25:26.040Z,12.63
2022-10-30T08:27:55.767Z,13.55
2022-10-30T08:30:24.705Z,12.48
2022-10-30T08:32:51.738Z,12.60
2022-10-30T08:35:20.233Z,13.85
2022-10-30T08:37:47.772Z,13.13
2022-10-30T08:40:14.832Z,12.73
2022-10-30T08:42:41.896Z,13.23
2022-10-30T08:45:09.254Z,12.52
2022-10-30T08:47:36.311Z,12.10
2022-10-30T08:50:03.450Z,12.93
2022-10-30T08:52:30.946Z,12.10
2022-10-30T08:54:58.001Z,12.18
2022-10-30T08:57:25.802Z,11.68
2022-10-30T08:59:52.810Z,12.25
2022-10-30T09:02:20.125Z,11.82
2022-10-30T09:04:47.263Z,12.48
2022-10-30T09:07:14.317Z,12.07
2022-10-30T09:09:41.311Z,12.10
2022-10-30T09:12:08.315Z,12.85
2022-10-30T09:14:35.398Z,11.77
2022-10-30T09:17:02.491Z,11.48
2022-10-30T09:19:29.952Z,11.45
2022-10-30T09:21:56.957Z,12.27
2022-10-30T09:24:23.940Z,12.00
2022-10-30T09:26:51.593Z,11.20
2022-10-30T09:29:18.598Z,10.55
2022-10-30T09:31:45.620Z,12.90
2022-10-30T09:34:12.613Z,11.55
2022-10-30T09:36:39.986Z,11.00
2022-10-30T09:39:07.017Z,11.43
2022-10-30T09:42:07.236Z,11.20
2022-10-30T09:45:08.072Z,12.07
2022-10-30T09:47:56.929Z,10.45
2022-10-30T09:50:57.746Z,10.75
2022-10-30T09:53:50.503Z,10.50
2022-10-30T09:56:40.005Z,9.68
2022-10-30T09:59:28.835Z,11.32
2022-10-30T10:02:13.016Z,10.05
2022-10-30T10:04:48.204Z,10.32
2022-10-30T10:07:30.003Z,11.55
2022-10-30T10:10:03.313Z,9.48
2022-10-30T10:13:01.439Z,9.63
2022-10-30T10:15:39.745Z,11.68
2022-10-30T10:18:16.335Z,10.63
2022-10-30T10:20:48.259Z,10.93
2022-10-30T10:23:19.511Z,10.75
2022-10-30T10:25:54.483Z,11.13
2022-10-30T10:28:41.667Z,11.68
2022-10-30T10:31:37.381Z,10.95
2022-10-30T10:34:29.951Z,10.45
2022-10-30T10:37:08.941Z,10.13
2022-10-30T10:40:00.065Z,9.70
2022-10-30T10:42:42.059Z,10.48
2022-10-30T10:45:23.319Z,9.98
2022-10-30T10:48:02.811Z,10.57
2022-10-30T10:50:38.918Z,10.25
2022-10-30T10:53:21.067Z,9.25
2022-10-30T10:55:52.809Z,10.15
2022-10-30T10:58:57.650Z,11.02
2022-10-30T11:01:36.873Z,10.25
2022-10-30T11:04:13.558Z,9.48
2022-10-30T11:06:43.690Z,9.63
2022-10-30T11:09:24.630Z,10.15
2022-10-30T11:11:53.591Z,10.18
2022-10-30T11:14:25.455Z,10.15
2022-10-30T11:17:10.895Z,10.85
2022-10-30T11:19:37.878Z,9.23
2022-10-30T11:22:28.662Z,9.82
2022-10-30T11:24:55.948Z,8.90
2022-10-30T11:27:22.876Z,9.32
2022-10-30T11:29:57.412Z,8.05
2022-10-30T11:32:28.495Z,8.73
2022-10-30T11:35:07.611Z,9.18
2022-10-30T11:37:36.985Z,9.02
2022-10-30T11:40:09.967Z,9.35
2022-10-30T11:42:40.510Z,8.32
2022-10-30T11:45:16.596Z,8.68
2022-10-30T11:47:43.854Z,9.60
2022-10-30T11:50:22.912Z,8.10
2022-10-30T11:52:57.533Z,9.45
2022-10-30T11:55:37.809Z,9.13
2022-10-30T11:58:08.458Z,9.45
2022-10-30T12:00:37.842Z,7.85
2022-10-30T12:03:04.857Z,8.50
2022-10-30T12:05:43.596Z,9.98
2022-10-30T12:08:15.245Z,8.85
2022-10-30T12:10:51.140Z,8.02
2022-10-30T12:13:20.355Z,8.68
2022-10-30T12:16:04.566Z,8.85
2022-10-30T12:18:32.846Z,8.57
2022-10-30T12:21:01.469Z,8.18
2022-10-30T12:23:29.401Z,8.73
2022-10-30T12:26:01.071Z,6.97
2022-10-30T12:28:34.573Z,8.35
2022-10-30T12:31:10.470Z,8.45
2022-10-30T12:33:45.337Z,8.93
2022-10-30T12:36:20.079Z,9.00
2022-10-30T12:38:49.409Z,8.38
2022-10-30T12:41:29.542Z,9.20
2022-10-30T12:44:21.378Z,8.43
2022-10-30T12:47:21.328Z,9.93
2022-10-30T12:49:52.829Z,8.35
2022-10-30T12:52:33.140Z,8.60
2022-10-30T12:55:34.183Z,7.55
2022-10-30T12:58:05.359Z,7.95
2022-10-30T13:00:42.886Z,7.68
2022-10-30T13:03:12.587Z,8.55
2022-10-30T13:05:45.761Z,8.23
2022-10-30T13:08:21.675Z,7.25
2022-10-30T13:11:16.999Z,7.78
2022-10-30T13:13:49.907Z,8.38
2022-10-30T13:16:22.606Z,8.23
2022-10-30T13:18:51.953Z,7.93
2022-10-30T13:21:25.798Z,7.00
2022-10-30T13:24:06.560Z,7.97
2022-10-30T13:26:47.373Z,7.60
2022-10-30T13:29:29.135Z,8.73
2022-10-30T13:32:23.256Z,7.97
2022-10-30T13:35:04.990Z,7.80
2022-10-30T13:37:47.102Z,8.95
2022-10-30T13:40:40.305Z,7.32
2022-10-30T13:43:30.136Z,7.82
2022-10-30T13:46:26.971Z,8.55
2022-10-30T13:49:29.182Z,8.82
2022-10-30T13:52:16.470Z,7.93
2022-10-30T13:54:55.323Z,7.25
2022-10-30T13:57:46.487Z,8.35
2022-10-30T14:00:14.306Z,7.72
2022-10-30T14:02:41.424Z,8.80
2022-10-30T14:05:52.941Z,8.73
2022-10-30T14:11:06.025Z,9.27
2022-10-30T14:13:35.820Z,8.98
2022-10-30T14:16:07.204Z,10.00
2022-10-30T14:18:45.808Z,9.23
2022-10-30T14:21:58.287Z,9.43
2022-10-30T14:24:31.848Z,9.60
2022-10-30T14:27:04.600Z,9.02
2022-10-30T14:29:34.743Z,9.37
2022-10-30T14:32:13.838Z,9.25
2022-10-30T14:34:47.649Z,9.15
2022-10-30T14:39:46.062Z,10.68
2022-10-30T14:42:47.586Z,9.43
2022-10-30T14:45:19.707Z,10.32
2022-10-30T14:48:01.950Z,9.88
2022-10-30T14:51:12.945Z,9.95
2022-10-30T14:54:00.503Z,10.60
2022-10-30T14:56:41.061Z,10.07
2022-10-30T14:59:13.833Z,9.75
2022-10-30T15:01:52.668Z,10.60
2022-10-30T15:04:43.120Z,10.40
2022-10-30T15:07:28.847Z,10.45
2022-10-30T15:10:16.943Z,11.18
2022-10-30T15:12:51.405Z,11.23
2022-10-30T15:15:19.533Z,10.65
2022-10-30T15:17:52.950Z,11.05
2022-10-30T15:20:25.736Z,11.23
2022-10-30T15:22:55.999Z,12.43
2022-10-30T15:25:33.455Z,12.30
2022-10-30T15:28:02.671Z,10.63
2022-10-30T15:30:30.824Z,11.88
2022-10-30T15:32:58.380Z,12.48
2022-10-30T15:35:27.630Z,30.83
2022-10-30T15:38:09.705Z,19.10
2022-10-30T15:40:40.654Z,15.23
2022-10-30T15:43:11.785Z,14.60
2022-10-30T15:45:44.287Z,21.88
2022-10-30T15:48:36.351Z,19.70
2022-10-30T15:51:06.675Z,13.88
2022-10-30T15:53:38.788Z,12.75
2022-10-30T15:56:11.826Z,13.25
2022-10-30T15:58:43.011Z,11.23
2022-10-30T16:01:24.780Z,10.85
2022-10-30T16:03:53.913Z,11.00
2022-10-30T16:06:25.223Z,10.02
2022-10-30T16:08:52.578Z,9.20
2022-10-30T16:11:22.599Z,9.18
2022-10-30T16:13:50.591Z,9.32
2022-10-30T16:16:29.110Z,8.98
2022-10-30T16:19:01.984Z,10.13
2022-10-30T16:21:31.371Z,10.37
2022-10-30T16:24:04.387Z,9.57
2022-10-30T16:26:37.089Z,8.63
2022-10-30T16:29:12.957Z,10.50
2022-10-30T16:31:42.960Z,10.05
2022-10-30T16:34:38.183Z,8.65
2022-10-30T16:37:06.830Z,9.85
2022-10-30T16:39:35.154Z,9.38
2022-10-30T16:42:02.604Z,8.98
2022-10-30T16:44:32.400Z,9.63
2022-10-30T16:47:17.605Z,9.30
2022-10-30T16:49:52.240Z,7.93
2022-10-30T16:52:27.022Z,7.45
2022-10-30T16:55:05.550Z,6.03
2022-10-30T16:57:36.677Z,6.15
2022-10-30T17:00:04.869Z,5.80
2022-10-30T17:02:36.738Z,5.70
2022-10-30T17:05:26.000Z,5.57
2022-10-30T17:07:55.682Z,5.43
2022-10-30T17:10:32.730Z,4.82
2022-10-30T17:13:37.156Z,5.60
2022-10-30T17:16:18.865Z,26.48
2022-10-30T17:18:49.537Z,19.15
2022-10-30T17:21:38.536Z,7.10
2022-10-30T17:24:06.156Z,18.70
2022-10-30T17:26:39.544Z,6.10
2022-10-30T17:29:06.538Z,5.43
2022-10-30T17:31:36.327Z,4.68
2022-10-30T17:34:13.861Z,4.45
2022-10-30T17:36:41.293Z,5.57
2022-10-30T17:39:08.628Z,11.95
2022-10-30T17:41:35.786Z,8.30
2022-10-30T17:44:03.694Z,5.72
2022-10-30T17:46:31.758Z,5.05
2022-10-30T17:48:59.478Z,6.30
2022-10-30T17:51:26.613Z,6.15
2022-10-30T17:53:53.728Z,7.32
2022-10-30T17:56:31.935Z,7.45
2022-10-30T17:58:59.446Z,5.57
2022-10-30T18:01:27.442Z,6.30
2022-10-30T18:03:55.565Z,7.78
2022-10-30T18:06:25.849Z,9.93
2022-10-30T18:08:53.777Z,10.82
2022-10-30T18:11:23.998Z,9.60
2022-10-30T18:13:52.013Z,12.57
2022-10-30T18:16:20.467Z,9.38
2022-10-30T18:18:47.724Z,7.78
2022-10-30T18:21:17.461Z,5.65
2022-10-30T18:23:53.208Z,5.90
2022-10-30T18:26:23.695Z,5.45
2022-10-30T18:28:51.118Z,5.30
2022-10-30T18:31:21.165Z,6.63
2022-10-30T18:33:48.647Z,9.77
2022-10-30T18:36:18.631Z,20.35
2022-10-30T18:38:45.971Z,32.28
2022-10-30T18:41:19.216Z,17.23
2022-10-30T18:43:47.355Z,21.33
2022-10-30T18:46:15.618Z,27.10
2022-10-30T18:48:43.452Z,22.08
2022-10-30T18:51:23.518Z,19.48
2022-10-30T18:53:53.657Z,12.60
2022-10-30T18:56:23.365Z,13.82
2022-10-30T18:58:54.841Z,9.15
2022-10-30T19:01:26.981Z,8.15
2022-10-30T19:03:54.097Z,9.27
2022-10-30T19:06:24.038Z,7.82
2022-10-30T19:08:51.276Z,7.53
2022-10-30T19:11:24.484Z,7.25
2022-10-30T19:13:54.220Z,8.35
2022-10-30T19:16:24.477Z,9.68
2022-10-30T19:18:51.493Z,8.38
2022-10-30T19:21:27.888Z,7.13
2022-10-30T19:23:56.142Z,6.90
2022-10-30T19:26:23.131Z,6.47
2022-10-30T19:28:50.181Z,6.40
2022-10-30T19:31:19.121Z,7.03
2022-10-30T19:33:50.031Z,7.20
2022-10-30T19:36:27.754Z,9.27
2022-10-30T19:38:55.819Z,6.78
2022-10-30T19:41:24.643Z,6.10
2022-10-30T19:43:53.157Z,5.45
2022-10-30T19:46:20.617Z,5.18
2022-10-30T19:49:02.853Z,6.32
2022-10-30T19:51:30.264Z,5.80
2022-10-30T19:53:57.304Z,5.78
2022-10-30T19:56:24.300Z,5.63
2022-10-30T19:58:51.295Z,9.30
2022-10-30T20:01:18.527Z,10.82
2022-10-30T20:03:45.654Z,8.25
2022-10-30T20:06:13.335Z,6.90
2022-10-30T20:08:40.780Z,7.68
2022-10-30T20:11:07.984Z,7.22
2022-10-30T20:13:35.387Z,7.45
2022-10-30T20:16:04.745Z,7.05
2022-10-30T20:18:34.991Z,7.15
2022-10-30T20:21:10.444Z,7.20
2022-10-30T20:23:37.554Z,6.93
2022-10-30T20:26:07.735Z,6.85
2022-10-30T20:28:42.498Z,6.65
2022-10-30T20:31:11.246Z,7.70
2022-10-30T20:33:38.612Z,8.35
2022-10-30T20:36:05.917Z,8.48
2022-10-30T20:38:34.206Z,7.28
2022-10-30T20:41:04.113Z,11.57
2022-10-30T20:43:38.576Z,7.45
2022-10-30T20:46:09.230Z,8.82
2022-10-30T20:48:37.798Z,7.78
2022-10-30T20:51:06.608Z,8.00
2022-10-30T20:53:33.966Z,7.13
2022-10-30T20:56:04.288Z,7.55
2022-10-30T20:58:31.428Z,6.80
2022-10-30T21:00:59.513Z,9.43
2022-10-30T21:03:27.667Z,9.00
2022-10-30T21:06:02.045Z,9.48
2022-10-30T21:08:31.912Z,8.05
2022-10-30T21:11:01.284Z,7.60
2022-10-30T21:13:28.891Z,7.15
2022-10-30T21:16:02.015Z,7.25
2022-10-30T21:18:29.504Z,8.30
2022-10-30T21:21:02.921Z,7.55
2022-10-30T21:23:32.274Z,7.78
2022-10-30T21:26:06.829Z,7.25
2022-10-30T21:28:34.074Z,7.22
2022-10-30T21:31:05.819Z,7.47
2022-10-30T21:33:34.750Z,7.07
2022-10-30T21:36:13.893Z,8.32
2022-10-30T21:38:42.202Z,7.72
2022-10-30T21:41:14.278Z,7.95
2022-10-30T21:43:41.670Z,7.78
2022-10-30T21:46:10.882Z,8.27
2022-10-30T21:48:38.535Z,8.27
2022-10-30T21:51:14.019Z,8.00
2022-10-30T21:53:41.637Z,8.98
2022-10-30T21:56:29.283Z,8.77
2022-10-30T21:58:59.294Z,8.52
2022-10-30T22:01:32.169Z,8.60
2022-10-30T22:04:01.473Z,7.53
2022-10-30T22:06:29.267Z,8.27
2022-10-30T22:08:57.005Z,7.65
2022-10-30T22:11:26.548Z,8.00
2022-10-30T22:13:55.069Z,7.78
2022-10-30T22:16:22.614Z,7.20
2022-10-30T22:18:49.753Z,7.75
2022-10-30T22:21:17.118Z,6.20
2022-10-30T22:23:44.308Z,7.88
2022-10-30T22:26:20.380Z,7.88
2022-10-30T22:28:47.727Z,7.25
2022-10-30T22:31:17.991Z,6.90
2022-10-30T22:33:45.830Z,6.60
2022-10-30T22:36:16.322Z,7.03
2022-10-30T22:38:43.495Z,7.05
2022-10-30T22:41:15.958Z,7.63
2022-10-30T22:43:44.850Z,7.43
2022-10-30T22:46:12.855Z,7.13
2022-10-30T22:48:40.714Z,7.03
2022-10-30T22:51:13.545Z,7.07
2022-10-30T22:53:44.815Z,6.38
2022-10-30T22:56:14.702Z,7.10
2022-10-30T22:58:42.282Z,8.05
2022-10-30T23:01:15.360Z,6.57
2022-10-30T23:03:43.165Z,6.70
2022-10-30T23:06:10.514Z,6.90
2022-10-30T23:08:37.658Z,7.38
2022-10-30T23:11:05.877Z,7.43
2022-10-30T23:13:34.382Z,7.40
2022-10-30T23:16:13.492Z,7.50
2022-10-30T23:18:40.872Z,6.53
2022-10-30T23:21:12.675Z,7.72
2022-10-30T23:23:41.204Z,7.00
2022-10-30T23:26:20.144Z,8.48
2022-10-30T23:28:48.720Z,8.20
2022-10-30T23:31:38.856Z,7.40
2022-10-30T23:34:10.747Z,8.13
2022-10-30T23:36:38.642Z,7.90
2022-10-30T23:39:17.016Z,8.32
2022-10-30T23:41:44.508Z,7.85
2022-10-30T23:44:13.734Z,8.32
2022-10-30T23:46:40.795Z,9.00
2022-10-30T23:49:07.840Z,9.45
2022-10-30T23:51:34.908Z,9.50
2022-10-30T23:54:02.648Z,9.70
2022-10-30T23:56:30.469Z,9.45
2022-10-30T23:58:57.843Z,9.77
